Pagrindinis puslapis
METAR-TAF:

METAR-TAF

Oro uostai :

Valjeduparas, Kolumbija

platuma: 10-26N, ilguma: 073-15W, Aukštis: 138 m

Dabartinis oras

Ataskaita buvo paskelbta 1 valandą ir 4 minutes, ne 23:00 UTC
Ramus vėjas
Temperatūra 25°C
Drėgmė 89%
Slėgis 1011 hPa
Matomumas: 9000 m
Mažai debesys ne aukštis 2000 ft, Liūtiniai kamuoliniai debesys.
Su prošvaistėmis ne aukštis 7000 ft
perkūnija

METAR: SKVP 222300Z 00000KT 9000 TS FEW020CB BKN070 25/23 A2985 RETSRA RMK CB/S

Laikas: 19:04 (00:04 UTC)


TAF: trūkstamas

Orai ataskaitas ir orų prognozės (METAR, TAF).

turimą stotys yra geltonos ir raudonos taškus žemėlapyje.

Perkelti pele per norėdami pamatyti stoties vardą.

Tada spustelėkite, norėdami matyti oro stebėjimo ir prognozės.

Norėdami pakeisti žemėlapį: spustelėkite ant žalios mygtukų su juodo kryžiaus žemyn,; žalią mygtuką su brūkšneliu, jei norite nutolinti; arba žalių rodyklių gretimoms žemėlapius.


METAR-TAF: